Time;durP1;ratioP1;P1;durP2;ratioP2;P2;SDS_P1;SDS_P2;PMS_P1;PMS_P2;Temp;Humidity;BMP_temperature;BMP_pressure;BME280_temperature;BME280_humidity;BME280_pressure;Samples;Min_cycle;Max_cycle;Signal;HPM_P1;HPM_P2
2022/11/19 00:00:46;;;;;;;;;;;19.50;68.00;;;;;;5041674;28;883;-69
2022/11/19 00:03:15;;;;;;;;;;;19.40;68.00;;;;;;5037353;28;1173;-69
2022/11/19 00:05:40;;;;;;;;;;;19.40;67.90;;;;;;5039175;28;895;-70
2022/11/19 00:08:06;;;;;;;;;;;19.40;68.00;;;;;;5041405;28;1899;-70
2022/11/19 00:10:35;;;;;;;;;;;19.40;68.00;;;;;;5039808;28;856;-69
2022/11/19 00:13:01;;;;;;;;;;;19.40;68.10;;;;;;5040186;28;869;-69
2022/11/19 00:15:26;;;;;;;;;;;19.40;68.10;;;;;;5037806;28;1440;-70
2022/11/19 00:17:52;;;;;;;;;;;19.40;68.00;;;;;;5036698;28;1288;-69
2022/11/19 00:20:17;;;;;;;;;;;19.40;68.10;;;;;;5037838;28;935;-69
2022/11/19 00:22:43;;;;;;;;;;;19.40;68.10;;;;;;5037384;28;916;-69
2022/11/19 00:25:09;;;;;;;;;;;19.40;68.10;;;;;;5039069;28;827;-69
2022/11/19 00:27:34;;;;;;;;;;;19.30;68.00;;;;;;5039065;28;1898;-69
2022/11/19 00:30:00;;;;;;;;;;;19.40;68.10;;;;;;5038409;28;899;-71
2022/11/19 00:32:25;;;;;;;;;;;19.40;68.10;;;;;;5038635;28;935;-70
2022/11/19 00:34:51;;;;;;;;;;;19.40;68.10;;;;;;5039471;28;836;-69
2022/11/19 00:37:16;;;;;;;;;;;19.30;68.20;;;;;;5037641;28;1220;-69
2022/11/19 00:39:42;;;;;;;;;;;19.40;68.20;;;;;;5037610;28;927;-70
2022/11/19 00:42:07;;;;;;;;;;;19.40;68.20;;;;;;5038827;28;896;-69
2022/11/19 00:44:33;;;;;;;;;;;19.40;68.20;;;;;;5038799;28;1187;-70
2022/11/19 00:46:58;;;;;;;;;;;19.40;68.20;;;;;;5038845;28;1894;-70
2022/11/19 00:49:24;;;;;;;;;;;19.40;68.20;;;;;;5022895;28;928;-69
2022/11/19 00:51:49;;;;;;;;;;;19.40;68.20;;;;;;5041346;28;923;-70
2022/11/19 00:54:14;;;;;;;;;;;19.30;68.20;;;;;;5041179;28;1267;-69
2022/11/19 00:56:40;;;;;;;;;;;19.30;68.20;;;;;;5039494;28;1250;-69
2022/11/19 00:59:05;;;;;;;;;;;19.30;68.20;;;;;;5040183;28;1095;-70
2022/11/19 01:01:31;;;;;;;;;;;19.30;68.10;;;;;;5034445;28;871;-69
2022/11/19 01:03:56;;;;;;;;;;;19.30;68.10;;;;;;5022576;28;916;-70
2022/11/19 01:06:22;;;;;;;;;;;19.30;68.20;;;;;;5037518;28;1197;-71
2022/11/19 01:08:48;;;;;;;;;;;19.30;68.20;;;;;;5021076;28;1953;-70
2022/11/19 01:11:15;;;;;;;;;;;19.30;68.20;;;;;;5037532;28;895;-71
2022/11/19 01:13:40;;;;;;;;;;;19.30;68.20;;;;;;5035780;28;1517;-69
2022/11/19 01:16:09;;;;;;;;;;;19.30;68.20;;;;;;5027464;28;816;-70
2022/11/19 01:18:35;;;;;;;;;;;19.30;68.20;;;;;;5034500;28;1334;-70
2022/11/19 01:21:01;;;;;;;;;;;19.30;68.20;;;;;;5029990;28;1016;-70
2022/11/19 01:23:26;;;;;;;;;;;19.30;68.20;;;;;;5025654;28;1240;-70
2022/11/19 01:25:52;;;;;;;;;;;19.30;68.20;;;;;;5041007;28;883;-70
2022/11/19 01:28:17;;;;;;;;;;;19.30;68.20;;;;;;5039377;28;1975;-69
2022/11/19 01:30:43;;;;;;;;;;;19.30;68.20;;;;;;5038483;28;843;-70
2022/11/19 01:33:08;;;;;;;;;;;19.30;68.20;;;;;;5034738;28;1541;-70
2022/11/19 01:35:34;;;;;;;;;;;19.30;68.20;;;;;;5038470;28;1018;-70
2022/11/19 01:38:00;;;;;;;;;;;19.30;68.20;;;;;;5037193;28;1351;-69
2022/11/19 01:40:26;;;;;;;;;;;19.30;68.20;;;;;;5020560;28;861;-70
2022/11/19 01:42:55;;;;;;;;;;;19.20;68.20;;;;;;5023697;28;888;-69
2022/11/19 01:45:25;;;;;;;;;;;19.20;68.20;;;;;;5038220;28;851;-69
2022/11/19 01:47:51;;;;;;;;;;;19.20;68.20;;;;;;5025840;28;1898;-69
2022/11/19 01:50:16;;;;;;;;;;;19.20;68.10;;;;;;5022158;28;887;-70
2022/11/19 01:52:42;;;;;;;;;;;19.20;68.10;;;;;;5039863;28;835;-69
2022/11/19 01:55:07;;;;;;;;;;;19.20;68.20;;;;;;5023734;28;863;-70
2022/11/19 01:57:33;;;;;;;;;;;19.20;68.10;;;;;;5037930;28;1371;-69
2022/11/19 01:59:58;;;;;;;;;;;19.20;68.10;;;;;;5040024;28;818;-69
2022/11/19 02:02:24;;;;;;;;;;;19.20;68.10;;;;;;5041477;28;895;-70
2022/11/19 02:04:52;;;;;;;;;;;19.20;68.20;;;;;;5033929;28;896;-69
2022/11/19 02:07:20;;;;;;;;;;;19.20;68.10;;;;;;5035652;28;1922;-70
2022/11/19 02:09:45;;;;;;;;;;;19.20;68.10;;;;;;5033461;28;871;-69
2022/11/19 02:12:29;;;;;;;;;;;19.20;68.10;;;;;;5022273;28;861;-70
2022/11/19 02:14:55;;;;;;;;;;;19.20;68.20;;;;;;5042567;28;1491;-69
2022/11/19 02:17:42;;;;;;;;;;;19.20;68.20;;;;;;5036884;28;1213;-69
2022/11/19 02:20:28;;;;;;;;;;;19.20;68.10;;;;;;5043392;28;885;-69
2022/11/19 02:23:12;;;;;;;;;;;19.20;68.80;;;;;;5043073;28;895;-70
2022/11/19 02:25:37;;;;;;;;;;;19.20;68.50;;;;;;5019874;28;893;-70
2022/11/19 02:28:21;;;;;;;;;;;19.20;68.20;;;;;;5041624;28;1914;-69
2022/11/19 02:30:50;;;;;;;;;;;19.20;68.10;;;;;;5046801;28;1425;-69
2022/11/19 02:33:50;;;;;;;;;;;19.20;68.10;;;;;;5044229;28;1170;-69
2022/11/19 02:36:23;;;;;;;;;;;19.20;68.10;;;;;;4969949;28;1515;-69
2022/11/19 02:38:50;;;;;;;;;;;19.20;68.10;;;;;;5011705;28;1528;-69
2022/11/19 02:41:33;;;;;;;;;;;19.20;68.10;;;;;;5024807;28;1310;-70
2022/11/19 02:46:46;;;;;;;;;;;19.20;68.20;;;;;;5027807;28;1965;-69
2022/11/19 02:49:11;;;;;;;;;;;19.20;68.10;;;;;;5041071;28;867;-69
2022/11/19 02:51:37;;;;;;;;;;;19.20;68.10;;;;;;5037592;28;875;-69
2022/11/19 02:54:03;;;;;;;;;;;19.20;68.10;;;;;;5041986;28;1284;-69
2022/11/19 02:56:50;;;;;;;;;;;19.20;68.10;;;;;;5037147;28;1205;-69
2022/11/19 03:04:48;;;;;;;;;;;19.20;68.10;;;;;;5039584;28;755;-69
2022/11/19 03:07:15;;;;;;;;;;;19.20;68.10;;;;;;5040416;28;1953;-69
2022/11/19 03:09:53;;;;;;;;;;;19.20;68.20;;;;;;5031788;28;1093;-69
2022/11/19 03:12:37;;;;;;;;;;;19.20;68.10;;;;;;5025894;28;833;-70
2022/11/19 03:18:08;;;;;;;;;;;19.20;68.10;;;;;;5039014;28;1320;-70
2022/11/19 03:20:35;;;;;;;;;;;19.20;68.10;;;;;;5041945;28;892;-69
2022/11/19 03:23:07;;;;;;;;;;;19.20;68.10;;;;;;5026615;28;1112;-70
2022/11/19 03:25:41;;;;;;;;;;;19.20;68.10;;;;;;5037717;28;927;-70
2022/11/19 03:28:07;;;;;;;;;;;19.20;68.10;;;;;;5027826;28;1989;-69
2022/11/19 03:30:32;;;;;;;;;;;19.20;68.20;;;;;;5023740;28;844;-68
2022/11/19 03:33:09;;;;;;;;;;;19.10;68.10;;;;;;5022193;28;887;-68
2022/11/19 03:35:35;;;;;;;;;;;19.20;68.10;;;;;;5039149;28;955;-68
2022/11/19 03:38:02;;;;;;;;;;;19.10;68.10;;;;;;5022409;28;1260;-68
2022/11/19 03:40:28;;;;;;;;;;;19.10;68.10;;;;;;5037878;28;978;-69
2022/11/19 03:42:54;;;;;;;;;;;19.10;68.10;;;;;;5039299;28;935;-69
2022/11/19 03:45:26;;;;;;;;;;;19.10;68.10;;;;;;5038379;28;836;-68
2022/11/19 03:47:52;;;;;;;;;;;19.10;68.10;;;;;;5024312;28;1966;-68
2022/11/19 03:50:17;;;;;;;;;;;19.10;68.10;;;;;;5040080;28;1007;-68
2022/11/19 03:52:43;;;;;;;;;;;19.10;68.10;;;;;;5039654;28;867;-68
2022/11/19 03:55:08;;;;;;;;;;;19.10;68.10;;;;;;5040276;28;955;-68
2022/11/19 03:57:34;;;;;;;;;;;19.10;68.10;;;;;;5031640;28;1769;-68
2022/11/19 03:59:59;;;;;;;;;;;19.10;68.10;;;;;;5041628;28;879;-68
2022/11/19 04:02:24;;;;;;;;;;;19.10;68.10;;;;;;5042387;28;1128;-71
2022/11/19 04:04:53;;;;;;;;;;;19.10;68.00;;;;;;5042923;28;835;-71
2022/11/19 04:07:21;;;;;;;;;;;19.10;68.00;;;;;;5039512;28;1953;-71
2022/11/19 04:09:47;;;;;;;;;;;19.10;68.00;;;;;;5038480;28;1225;-72
2022/11/19 04:12:16;;;;;;;;;;;19.10;68.00;;;;;;5022684;28;872;-71
2022/11/19 04:14:41;;;;;;;;;;;19.10;68.00;;;;;;5042142;28;1474;-70
2022/11/19 04:17:07;;;;;;;;;;;19.10;68.00;;;;;;5041166;28;1243;-71
2022/11/19 04:19:32;;;;;;;;;;;19.10;68.00;;;;;;5039799;28;993;-71
2022/11/19 04:21:58;;;;;;;;;;;19.10;67.90;;;;;;5042252;28;975;-71
2022/11/19 04:24:23;;;;;;;;;;;19.10;68.00;;;;;;5041427;28;1265;-71
2022/11/19 04:26:49;;;;;;;;;;;19.10;67.90;;;;;;5039839;28;1918;-71
2022/11/19 04:29:14;;;;;;;;;;;19.10;67.90;;;;;;5037826;28;843;-71
2022/11/19 04:31:40;;;;;;;;;;;19.10;67.90;;;;;;5038422;28;869;-69
2022/11/19 04:34:05;;;;;;;;;;;19.10;67.90;;;;;;5038469;28;904;-70
2022/11/19 04:36:31;;;;;;;;;;;19.10;67.90;;;;;;5037280;28;1269;-70
2022/11/19 04:38:56;;;;;;;;;;;19.10;67.90;;;;;;5024512;28;1302;-71
2022/11/19 04:41:22;;;;;;;;;;;19.10;67.90;;;;;;5022392;28;887;-70
2022/11/19 04:43:47;;;;;;;;;;;19.10;67.90;;;;;;5036338;28;939;-70
2022/11/19 04:46:13;;;;;;;;;;;19.10;67.90;;;;;;5036889;28;1276;-71
2022/11/19 04:48:38;;;;;;;;;;;19.10;67.90;;;;;;5037643;28;1906;-70
2022/11/19 04:51:04;;;;;;;;;;;19.10;68.00;;;;;;5042714;28;823;-70
2022/11/19 04:53:29;;;;;;;;;;;19.10;67.90;;;;;;5040287;28;1017;-70
2022/11/19 04:55:54;;;;;;;;;;;19.10;67.90;;;;;;5037546;28;883;-70
2022/11/19 04:58:20;;;;;;;;;;;19.10;67.90;;;;;;5039772;28;1280;-70
2022/11/19 05:00:46;;;;;;;;;;;19.10;67.90;;;;;;5035020;28;1336;-69
2022/11/19 05:03:11;;;;;;;;;;;19.10;67.90;;;;;;5041454;28;1013;-68
2022/11/19 05:05:37;;;;;;;;;;;19.10;68.00;;;;;;5037132;28;1018;-69
2022/11/19 05:08:02;;;;;;;;;;;19.10;68.00;;;;;;5041622;28;1961;-68
2022/11/19 05:10:28;;;;;;;;;;;19.10;68.00;;;;;;5040106;28;907;-68
2022/11/19 05:12:53;;;;;;;;;;;19.10;67.90;;;;;;5037087;28;910;-69
2022/11/19 05:15:19;;;;;;;;;;;19.10;67.90;;;;;;5033979;28;1061;-69
2022/11/19 05:17:44;;;;;;;;;;;19.10;67.80;;;;;;5037969;28;1363;-68
2022/11/19 05:20:10;;;;;;;;;;;19.20;67.80;;;;;;5036597;28;899;-69
2022/11/19 05:22:36;;;;;;;;;;;19.20;67.70;;;;;;5037414;28;934;-70
2022/11/19 05:25:01;;;;;;;;;;;19.20;67.60;;;;;;5039426;28;866;-69
2022/11/19 05:27:26;;;;;;;;;;;19.20;67.50;;;;;;5040530;28;1914;-68
2022/11/19 05:29:52;;;;;;;;;;;19.30;67.30;;;;;;5021015;28;850;-69
2022/11/19 05:32:17;;;;;;;;;;;19.30;67.20;;;;;;5036554;28;874;-69
2022/11/19 05:34:43;;;;;;;;;;;19.30;67.10;;;;;;5040172;28;1348;-68
2022/11/19 05:37:09;;;;;;;;;;;19.40;67.10;;;;;;5037707;28;1359;-68
2022/11/19 05:39:34;;;;;;;;;;;19.40;67.00;;;;;;5038171;28;995;-68
2022/11/19 05:41:59;;;;;;;;;;;19.40;66.80;;;;;;5040929;28;924;-68
2022/11/19 05:44:25;;;;;;;;;;;19.40;66.70;;;;;;5022716;28;1057;-69
2022/11/19 05:46:50;;;;;;;;;;;19.40;66.70;;;;;;5035790;28;1959;-68
2022/11/19 05:49:16;;;;;;;;;;;19.40;66.60;;;;;;5036387;28;868;-69
2022/11/19 05:51:41;;;;;;;;;;;19.50;66.50;;;;;;5039288;28;804;-68
2022/11/19 05:54:07;;;;;;;;;;;19.50;66.50;;;;;;5038038;28;884;-70
2022/11/19 05:56:32;;;;;;;;;;;19.50;66.40;;;;;;5035866;28;1259;-70
2022/11/19 05:58:58;;;;;;;;;;;19.50;66.40;;;;;;5038634;28;876;-69
2022/11/19 06:01:26;;;;;;;;;;;19.50;66.40;;;;;;5040690;28;914;-70
2022/11/19 06:03:52;;;;;;;;;;;19.50;66.30;;;;;;5028361;28;889;-69
2022/11/19 06:06:17;;;;;;;;;;;19.50;66.30;;;;;;5040051;28;1201;-71
2022/11/19 06:08:43;;;;;;;;;;;19.60;66.30;;;;;;5023391;28;1973;-69
2022/11/19 06:11:46;;;;;;;;;;;19.60;66.20;;;;;;5037585;28;800;-69
2022/11/19 06:13:56;;;;;;;;;;;19.60;66.20;;;;;;5039147;28;1441;-70
2022/11/19 06:16:22;;;;;;;;;;;19.60;66.20;;;;;;5038245;28;1315;-70
2022/11/19 06:18:47;;;;;;;;;;;19.60;66.20;;;;;;5038464;28;904;-69
2022/11/19 06:21:13;;;;;;;;;;;19.50;66.10;;;;;;5037467;28;869;-70
2022/11/19 06:23:38;;;;;;;;;;;19.60;66.20;;;;;;5037025;28;973;-70
2022/11/19 06:26:05;;;;;;;;;;;19.50;66.00;;;;;;5037181;28;1345;-70
2022/11/19 06:28:31;;;;;;;;;;;19.60;66.00;;;;;;5036814;28;2000;-70
2022/11/19 06:30:56;;;;;;;;;;;19.60;66.00;;;;;;5039354;28;1006;-70
2022/11/19 06:33:22;;;;;;;;;;;19.60;66.00;;;;;;5040054;28;901;-69
2022/11/19 06:35:47;;;;;;;;;;;19.60;66.00;;;;;;5038864;28;892;-70
2022/11/19 06:38:13;;;;;;;;;;;19.60;66.00;;;;;;5039791;28;1182;-70
2022/11/19 06:40:38;;;;;;;;;;;19.60;66.00;;;;;;5038093;28;1029;-70
2022/11/19 06:43:04;;;;;;;;;;;19.60;66.00;;;;;;5042547;28;812;-70
2022/11/19 06:45:29;;;;;;;;;;;19.60;65.90;;;;;;5043880;28;880;-70
2022/11/19 06:47:55;;;;;;;;;;;19.60;65.90;;;;;;5043426;28;1906;-70
2022/11/19 06:50:20;;;;;;;;;;;19.60;66.00;;;;;;5043639;28;943;-72
2022/11/19 06:52:45;;;;;;;;;;;19.60;66.00;;;;;;5040544;28;910;-70
2022/11/19 06:55:12;;;;;;;;;;;19.60;66.00;;;;;;5044545;28;1224;-70
2022/11/19 06:57:37;;;;;;;;;;;19.60;66.00;;;;;;5039989;28;1217;-70
2022/11/19 07:00:03;;;;;;;;;;;19.60;66.00;;;;;;5038788;28;1663;-70
2022/11/19 07:02:29;;;;;;;;;;;19.60;66.00;;;;;;5030895;28;907;-69
2022/11/19 07:04:54;;;;;;;;;;;19.60;66.00;;;;;;5040133;28;844;-70
2022/11/19 07:07:20;;;;;;;;;;;19.50;66.00;;;;;;5038268;28;1918;-69
2022/11/19 07:09:45;;;;;;;;;;;19.50;66.00;;;;;;5040895;28;868;-69
2022/11/19 07:12:10;;;;;;;;;;;19.50;66.00;;;;;;5034182;28;1669;-68
2022/11/19 07:14:36;;;;;;;;;;;19.50;66.00;;;;;;5037247;28;1911;-69
2022/11/19 07:17:01;;;;;;;;;;;19.60;66.10;;;;;;5038111;28;1866;-71
2022/11/19 07:19:27;;;;;;;;;;;19.50;66.10;;;;;;5038838;28;1215;-73
2022/11/19 07:21:52;;;;;;;;;;;19.50;66.10;;;;;;5039471;28;944;-70
2022/11/19 07:24:18;;;;;;;;;;;19.50;66.10;;;;;;5040035;28;2044;-69
2022/11/19 07:26:43;;;;;;;;;;;19.50;66.20;;;;;;5041487;28;1898;-71
2022/11/19 07:29:10;;;;;;;;;;;19.50;66.20;;;;;;5042179;28;1050;-69
2022/11/19 07:31:35;;;;;;;;;;;19.50;67.00;;;;;;5023358;28;1062;-70
2022/11/19 07:34:04;;;;;;;;;;;19.50;66.20;;;;;;5038047;28;788;-69
2022/11/19 07:36:29;;;;;;;;;;;19.50;66.20;;;;;;5034701;28;1272;-68
2022/11/19 07:38:56;;;;;;;;;;;19.50;66.30;;;;;;5039050;28;884;-70
2022/11/19 07:44:05;;;;;;;;;;;19.50;66.30;;;;;;5039803;28;893;-70
2022/11/19 07:46:31;;;;;;;;;;;19.40;66.30;;;;;;5041060;28;1374;-68
2022/11/19 07:48:56;;;;;;;;;;;19.50;66.30;;;;;;5043842;28;2293;-71
2022/11/19 07:51:22;;;;;;;;;;;19.40;66.30;;;;;;5040647;28;935;-68
2022/11/19 07:53:48;;;;;;;;;;;19.40;66.30;;;;;;5040192;28;907;-70
2022/11/19 07:56:14;;;;;;;;;;;19.50;67.20;;;;;;5039023;28;903;-70
2022/11/19 07:58:39;;;;;;;;;;;19.40;66.40;;;;;;5039906;28;2117;-70
2022/11/19 08:01:23;;;;;;;;;;;19.40;66.30;;;;;;5039296;28;2098;-69
2022/11/19 08:03:49;;;;;;;;;;;19.40;66.40;;;;;;5041019;28;2224;-69
2022/11/19 08:06:14;;;;;;;;;;;19.40;66.40;;;;;;5038983;28;1934;-70
2022/11/19 08:08:40;;;;;;;;;;;19.40;66.40;;;;;;5042966;28;1903;-71
2022/11/19 08:11:06;;;;;;;;;;;19.40;66.40;;;;;;5040468;28;1565;-68
2022/11/19 08:13:32;;;;;;;;;;;19.40;66.40;;;;;;5041854;28;1612;-69
2022/11/19 08:16:00;;;;;;;;;;;19.40;66.40;;;;;;5040434;28;1503;-70
2022/11/19 08:18:26;;;;;;;;;;;19.40;66.30;;;;;;5039939;28;1626;-69
2022/11/19 08:20:51;;;;;;;;;;;19.40;66.30;;;;;;5039706;28;1459;-69
2022/11/19 08:23:17;;;;;;;;;;;19.50;66.30;;;;;;5037497;28;883;-68
2022/11/19 08:25:45;;;;;;;;;;;19.40;66.20;;;;;;5037026;28;1248;-69
2022/11/19 08:28:11;;;;;;;;;;;19.50;66.30;;;;;;5040683;28;1902;-68
2022/11/19 08:30:38;;;;;;;;;;;19.50;66.10;;;;;;5042159;28;1388;-69
2022/11/19 08:33:04;;;;;;;;;;;19.50;66.10;;;;;;5030634;28;1460;-68
2022/11/19 08:35:29;;;;;;;;;;;19.50;66.10;;;;;;5040443;28;1392;-68
2022/11/19 08:37:56;;;;;;;;;;;19.60;66.00;;;;;;5040293;28;1297;-70
2022/11/19 08:40:22;;;;;;;;;;;19.60;66.00;;;;;;5021948;28;1570;-70
2022/11/19 08:43:00;;;;;;;;;;;19.60;65.90;;;;;;5019280;28;1565;-69
2022/11/19 08:45:26;;;;;;;;;;;19.60;65.80;;;;;;5039179;28;1406;-70
2022/11/19 08:47:52;;;;;;;;;;;19.60;65.80;;;;;;5023760;28;1957;-69
2022/11/19 08:50:17;;;;;;;;;;;19.60;65.80;;;;;;5044240;28;1392;-70
2022/11/19 08:52:43;;;;;;;;;;;19.60;65.70;;;;;;5040416;28;1372;-71
2022/11/19 08:55:08;;;;;;;;;;;19.60;65.70;;;;;;5036283;28;1414;-72
2022/11/19 08:57:34;;;;;;;;;;;19.60;65.70;;;;;;5037032;28;1466;-71
2022/11/19 08:59:59;;;;;;;;;;;19.60;65.60;;;;;;5039712;28;1448;-71
2022/11/19 09:02:24;;;;;;;;;;;19.60;65.60;;;;;;5040350;28;1719;-69
2022/11/19 09:04:50;;;;;;;;;;;19.60;65.60;;;;;;5041437;28;1593;-69
2022/11/19 09:07:16;;;;;;;;;;;19.70;65.60;;;;;;5037884;28;1970;-69
2022/11/19 09:09:41;;;;;;;;;;;19.60;65.50;;;;;;5035346;28;919;-69
2022/11/19 09:12:07;;;;;;;;;;;19.60;65.50;;;;;;5038232;28;1294;-69
2022/11/19 09:14:32;;;;;;;;;;;19.70;65.50;;;;;;5020825;28;1051;-69
2022/11/19 09:16:58;;;;;;;;;;;19.70;65.60;;;;;;5034662;28;1185;-69
2022/11/19 09:19:23;;;;;;;;;;;19.70;65.50;;;;;;5042861;28;998;-70
2022/11/19 09:21:48;;;;;;;;;;;19.70;65.50;;;;;;5039068;28;854;-70
2022/11/19 09:24:14;;;;;;;;;;;19.70;65.40;;;;;;5039748;28;842;-69
2022/11/19 09:26:39;;;;;;;;;;;19.70;65.50;;;;;;5037080;28;1370;-69
2022/11/19 09:29:05;;;;;;;;;;;19.70;65.50;;;;;;5038381;28;1918;-69
2022/11/19 09:31:30;;;;;;;;;;;19.70;65.40;;;;;;5035871;28;1293;-69
2022/11/19 09:33:56;;;;;;;;;;;19.70;65.40;;;;;;5038008;28;1026;-69
2022/11/19 09:36:21;;;;;;;;;;;19.70;65.40;;;;;;5036988;28;1371;-69
2022/11/19 09:38:47;;;;;;;;;;;19.70;65.40;;;;;;5028439;28;2109;-69
2022/11/19 09:41:28;;;;;;;;;;;19.70;65.40;;;;;;5018547;28;1212;-69
2022/11/19 09:43:56;;;;;;;;;;;19.70;65.40;;;;;;5038685;28;1389;-70
2022/11/19 09:46:23;;;;;;;;;;;19.70;65.40;;;;;;5035107;28;1279;-70
2022/11/19 09:48:49;;;;;;;;;;;19.70;65.40;;;;;;5022816;28;1969;-70
2022/11/19 09:51:15;;;;;;;;;;;19.70;65.30;;;;;;5020523;28;830;-69
2022/11/19 09:53:48;;;;;;;;;;;19.70;65.40;;;;;;5039958;28;873;-70
2022/11/19 09:56:20;;;;;;;;;;;19.70;65.30;;;;;;5036369;28;1010;-69
2022/11/19 09:58:46;;;;;;;;;;;19.70;65.30;;;;;;5022829;28;1185;-69
2022/11/19 10:01:12;;;;;;;;;;;19.70;65.30;;;;;;5029203;28;839;-69
2022/11/19 10:03:44;;;;;;;;;;;19.70;65.30;;;;;;5022215;28;896;-69
2022/11/19 10:06:13;;;;;;;;;;;19.70;65.40;;;;;;5034632;28;1336;-69
2022/11/19 10:08:57;;;;;;;;;;;19.70;65.30;;;;;;5041186;28;1906;-69
2022/11/19 10:11:27;;;;;;;;;;;19.70;65.30;;;;;;5039263;28;1332;-70
2022/11/19 10:13:57;;;;;;;;;;;19.70;65.30;;;;;;5042477;28;1477;-69
2022/11/19 10:16:35;;;;;;;;;;;19.70;65.40;;;;;;5041811;28;1402;-68
2022/11/19 10:19:20;;;;;;;;;;;19.70;65.40;;;;;;5041415;28;1366;-69
2022/11/19 10:21:55;;;;;;;;;;;19.70;65.40;;;;;;5044283;28;1466;-69
2022/11/19 10:24:27;;;;;;;;;;;19.70;65.40;;;;;;5041359;28;1445;-69
2022/11/19 10:26:57;;;;;;;;;;;19.70;65.40;;;;;;5031798;28;1906;-69
2022/11/19 10:29:22;;;;;;;;;;;19.70;65.50;;;;;;5027817;28;1490;-70
2022/11/19 10:31:48;;;;;;;;;;;19.70;65.50;;;;;;5028017;28;1382;-70
2022/11/19 10:34:30;;;;;;;;;;;19.60;65.50;;;;;;5043068;28;1619;-73
2022/11/19 10:36:56;;;;;;;;;;;19.60;65.50;;;;;;5026559;28;1502;-69
2022/11/19 10:39:23;;;;;;;;;;;19.60;65.50;;;;;;5027427;28;1267;-69
2022/11/19 10:41:55;;;;;;;;;;;19.60;65.50;;;;;;5040826;28;1388;-70
2022/11/19 10:44:40;;;;;;;;;;;19.60;65.50;;;;;;5041225;28;1343;-70
2022/11/19 10:47:07;;;;;;;;;;;19.60;65.50;;;;;;5041455;28;1963;-71
2022/11/19 10:49:33;;;;;;;;;;;19.60;65.60;;;;;;5042435;28;2045;-71
2022/11/19 10:51:59;;;;;;;;;;;19.60;65.60;;;;;;5025349;28;904;-69
2022/11/19 10:54:26;;;;;;;;;;;19.60;65.60;;;;;;5040821;28;1045;-69
2022/11/19 10:56:52;;;;;;;;;;;19.60;65.60;;;;;;5042500;28;1283;-69
2022/11/19 10:59:18;;;;;;;;;;;19.50;65.70;;;;;;5024711;28;1267;-69
2022/11/19 11:01:45;;;;;;;;;;;19.60;65.70;;;;;;5021582;28;1243;-69
2022/11/19 11:04:27;;;;;;;;;;;19.50;65.70;;;;;;5012434;28;1492;-69
2022/11/19 11:06:53;;;;;;;;;;;19.60;65.80;;;;;;5023149;28;1902;-69
2022/11/19 11:09:31;;;;;;;;;;;19.50;65.80;;;;;;5031727;28;854;-69
2022/11/19 11:15:00;;;;;;;;;;;19.50;65.80;;;;;;5042690;28;1031;-69
2022/11/19 11:17:29;;;;;;;;;;;19.60;65.90;;;;;;5019404;28;1373;-70
2022/11/19 11:19:59;;;;;;;;;;;19.50;65.90;;;;;;5036542;28;1010;-70
2022/11/19 11:22:24;;;;;;;;;;;19.50;65.90;;;;;;5030715;28;855;-70
2022/11/19 11:24:50;;;;;;;;;;;19.50;66.00;;;;;;5038079;28;1324;-70
2022/11/19 11:27:29;;;;;;;;;;;19.50;66.00;;;;;;5035247;28;1899;-70
2022/11/19 11:30:10;;;;;;;;;;;19.50;66.00;;;;;;5032189;28;863;-70
2022/11/19 11:32:36;;;;;;;;;;;19.50;66.10;;;;;;5043479;28;896;-70
2022/11/19 11:35:01;;;;;;;;;;;19.50;66.10;;;;;;5036249;28;845;-70
2022/11/19 11:37:27;;;;;;;;;;;19.50;66.10;;;;;;5039151;28;1276;-70
2022/11/19 11:39:54;;;;;;;;;;;19.50;66.10;;;;;;5038663;28;960;-71
2022/11/19 11:42:19;;;;;;;;;;;19.40;66.10;;;;;;5027687;28;880;-70
2022/11/19 11:44:52;;;;;;;;;;;19.40;66.10;;;;;;5041838;28;915;-69
2022/11/19 11:47:38;;;;;;;;;;;19.40;66.10;;;;;;5022582;28;1960;-70
2022/11/19 11:50:07;;;;;;;;;;;19.40;66.20;;;;;;5037733;28;1129;-69
2022/11/19 11:52:42;;;;;;;;;;;19.40;66.20;;;;;;5029253;28;2122;-70
2022/11/19 11:55:23;;;;;;;;;;;19.40;66.20;;;;;;5040161;28;1395;-70
2022/11/19 11:57:58;;;;;;;;;;;19.40;66.20;;;;;;5040889;28;1344;-69
2022/11/19 12:00:34;;;;;;;;;;;19.40;66.30;;;;;;5038387;28;836;-69
2022/11/19 12:03:03;;;;;;;;;;;19.40;66.30;;;;;;5039678;28;859;-70
2022/11/19 12:05:47;;;;;;;;;;;19.40;66.30;;;;;;5039296;28;954;-69
2022/11/19 12:08:13;;;;;;;;;;;19.30;66.30;;;;;;5039574;28;1971;-69
2022/11/19 12:10:48;;;;;;;;;;;19.40;66.40;;;;;;5040295;28;1003;-70
2022/11/19 12:13:19;;;;;;;;;;;19.40;66.40;;;;;;5025903;28;966;-70
2022/11/19 12:15:49;;;;;;;;;;;19.40;66.40;;;;;;5037855;28;1320;-68
2022/11/19 12:18:22;;;;;;;;;;;19.30;66.40;;;;;;5039634;28;1201;-69
2022/11/19 12:21:14;;;;;;;;;;;19.40;66.50;;;;;;5030540;28;987;-69
2022/11/19 12:23:48;;;;;;;;;;;19.30;66.40;;;;;;5009313;28;1285;-68
2022/11/19 12:26:37;;;;;;;;;;;19.40;67.30;;;;;;5039142;28;1420;-69
2022/11/19 12:29:02;;;;;;;;;;;19.30;66.50;;;;;;5031442;28;1899;-69
2022/11/19 12:31:46;;;;;;;;;;;19.30;66.50;;;;;;5037447;28;975;-69
2022/11/19 12:34:30;;;;;;;;;;;19.30;66.60;;;;;;5040038;28;945;-69
2022/11/19 12:37:18;;;;;;;;;;;19.30;66.60;;;;;;5040921;28;1190;-69
2022/11/19 12:40:02;;;;;;;;;;;19.30;66.60;;;;;;5038884;28;954;-69
2022/11/19 12:42:46;;;;;;;;;;;19.30;66.70;;;;;;5038739;28;994;-70
2022/11/19 12:45:29;;;;;;;;;;;19.30;66.70;;;;;;5038608;28;942;-68
2022/11/19 12:47:57;;;;;;;;;;;19.30;66.70;;;;;;5037894;28;1905;-69
2022/11/19 12:50:23;;;;;;;;;;;19.30;66.80;;;;;;5038322;28;880;-70
2022/11/19 12:53:04;;;;;;;;;;;19.20;66.70;;;;;;5039923;28;895;-71
2022/11/19 12:55:48;;;;;;;;;;;19.20;66.80;;;;;;5041470;28;1010;-71
2022/11/19 12:58:16;;;;;;;;;;;19.20;66.80;;;;;;5038386;28;2139;-68
2022/11/19 13:00:45;;;;;;;;;;;19.20;66.90;;;;;;5023155;28;1474;-70
2022/11/19 13:03:13;;;;;;;;;;;19.20;66.90;;;;;;5019720;28;920;-69
2022/11/19 13:05:58;;;;;;;;;;;19.20;66.90;;;;;;5032138;28;849;-69
2022/11/19 13:08:23;;;;;;;;;;;19.20;66.90;;;;;;5037924;28;1898;-70
2022/11/19 13:10:51;;;;;;;;;;;19.20;67.00;;;;;;5036282;28;1316;-70
2022/11/19 13:13:18;;;;;;;;;;;19.20;66.90;;;;;;5034722;28;849;-71
2022/11/19 13:15:44;;;;;;;;;;;19.20;66.90;;;;;;5018059;28;1704;-70
2022/11/19 13:18:11;;;;;;;;;;;19.20;67.00;;;;;;5036026;28;1383;-69
2022/11/19 13:20:44;;;;;;;;;;;19.20;67.00;;;;;;5022334;28;1006;-68
2022/11/19 13:23:12;;;;;;;;;;;19.20;67.00;;;;;;5016538;28;1923;-68
2022/11/19 13:25:38;;;;;;;;;;;19.20;67.00;;;;;;5036814;28;1005;-70
2022/11/19 13:28:06;;;;;;;;;;;19.20;67.00;;;;;;5037211;28;1910;-69
2022/11/19 13:30:32;;;;;;;;;;;19.20;67.10;;;;;;5036521;28;1054;-69
2022/11/19 13:33:04;;;;;;;;;;;19.20;67.10;;;;;;5023333;28;907;-69
2022/11/19 13:35:36;;;;;;;;;;;19.10;67.00;;;;;;5034271;28;1018;-68
2022/11/19 13:38:06;;;;;;;;;;;19.10;67.00;;;;;;5029661;28;1289;-70
2022/11/19 13:40:36;;;;;;;;;;;19.10;67.00;;;;;;5039540;28;2123;-68
2022/11/19 13:45:49;;;;;;;;;;;19.10;67.10;;;;;;5023894;28;779;-69
2022/11/19 13:48:22;;;;;;;;;;;19.10;67.10;;;;;;5037700;28;1890;-68
2022/11/19 13:50:48;;;;;;;;;;;19.10;67.10;;;;;;5037536;28;1042;-69
2022/11/19 13:53:13;;;;;;;;;;;19.10;67.10;;;;;;5021129;28;816;-69
2022/11/19 13:55:39;;;;;;;;;;;19.10;67.10;;;;;;5035538;28;1413;-70
2022/11/19 13:58:18;;;;;;;;;;;19.10;67.20;;;;;;5029002;28;1187;-70
2022/11/19 14:00:56;;;;;;;;;;;19.10;67.20;;;;;;5027102;28;860;-70
2022/11/19 14:03:26;;;;;;;;;;;19.10;67.20;;;;;;5038740;28;874;-69
2022/11/19 14:06:24;;;;;;;;;;;19.10;67.20;;;;;;5036608;28;853;-69
2022/11/19 14:08:53;;;;;;;;;;;19.10;67.20;;;;;;4977602;28;1903;-68
2022/11/19 14:11:41;;;;;;;;;;;19.10;67.20;;;;;;5024068;28;895;-69
2022/11/19 14:14:07;;;;;;;;;;;19.10;67.20;;;;;;5036217;28;1473;-69
2022/11/19 14:27:53;;;;;;;;;;;19.00;67.20;;;;;;5036829;28;1973;-69
2022/11/19 14:30:19;;;;;;;;;;;19.00;67.20;;;;;;5033333;28;812;-69
2022/11/19 14:32:48;;;;;;;;;;;19.00;67.20;;;;;;5037586;28;851;-69
2022/11/19 14:35:20;;;;;;;;;;;19.00;67.30;;;;;;5038072;28;1564;-69
2022/11/19 14:37:46;;;;;;;;;;;19.00;67.30;;;;;;5041278;28;1224;-70
2022/11/19 14:40:12;;;;;;;;;;;19.00;67.30;;;;;;5019229;28;820;-69
2022/11/19 14:44:07;;;;;;;;;;;19.00;67.30;;;;;;5034021;28;884;-68
2022/11/19 14:45:52;;;;;;;;;;;19.00;67.30;;;;;;5038510;28;943;-68
2022/11/19 14:48:17;;;;;;;;;;;19.00;67.40;;;;;;5019806;28;1953;-68
2022/11/19 14:50:43;;;;;;;;;;;19.00;67.40;;;;;;5037282;28;969;-69
2022/11/19 14:53:14;;;;;;;;;;;19.00;67.30;;;;;;5037244;28;1033;-69
2022/11/19 14:55:40;;;;;;;;;;;19.00;67.40;;;;;;5038716;28;812;-69
2022/11/19 14:58:06;;;;;;;;;;;19.00;67.40;;;;;;5039610;28;1318;-69
2022/11/19 15:00:38;;;;;;;;;;;19.00;67.40;;;;;;5026616;28;919;-70
2022/11/19 15:03:11;;;;;;;;;;;19.00;67.40;;;;;;5037989;28;1488;-68
2022/11/19 15:05:43;;;;;;;;;;;19.00;67.40;;;;;;5031243;28;865;-69
2022/11/19 15:08:17;;;;;;;;;;;19.00;67.40;;;;;;5027165;28;1897;-69
2022/11/19 15:10:47;;;;;;;;;;;19.00;67.40;;;;;;5039046;28;986;-68
2022/11/19 15:13:16;;;;;;;;;;;19.00;67.40;;;;;;5039825;28;855;-69
2022/11/19 15:15:42;;;;;;;;;;;19.00;67.40;;;;;;5040999;28;1208;-68